createdAt,value
2022-08-23T00:02:29.892Z,98.95
2022-08-23T00:05:08.033Z,101.25
2022-08-23T00:07:39.763Z,117.15
2022-08-23T00:10:12.635Z,106.28
2022-08-23T00:12:43.809Z,110.32
2022-08-23T00:15:17.679Z,103.82
2022-08-23T00:17:46.873Z,96.68
2022-08-23T00:20:19.917Z,112.75
2022-08-23T00:22:49.202Z,104.72
2022-08-23T00:25:20.430Z,108.45
2022-08-23T00:27:51.118Z,110.25
2022-08-23T00:30:20.678Z,111.63
2022-08-23T00:32:51.728Z,96.10
2022-08-23T00:35:27.505Z,113.03
2022-08-23T00:38:32.903Z,94.90
2022-08-23T00:40:52.843Z,97.03
2022-08-23T00:43:47.921Z,98.70
2022-08-23T00:46:49.544Z,115.63
2022-08-23T00:49:19.742Z,110.50
2022-08-23T00:51:57.696Z,117.38
2022-08-23T00:54:29.989Z,120.00
2022-08-23T00:57:04.940Z,113.57
2022-08-23T00:59:35.895Z,113.68
2022-08-23T01:02:08.834Z,125.93
2022-08-23T01:04:44.574Z,108.57
2022-08-23T01:07:21.262Z,124.15
2022-08-23T01:09:54.150Z,108.50
2022-08-23T01:12:33.108Z,112.88
2022-08-23T01:15:12.742Z,106.22
2022-08-23T01:17:47.901Z,125.38
2022-08-23T01:20:21.504Z,125.93
2022-08-23T01:23:01.214Z,121.65
2022-08-23T01:25:35.106Z,129.77
2022-08-23T01:28:04.904Z,127.00
2022-08-23T01:30:36.565Z,128.55
2022-08-23T01:33:08.493Z,128.80
2022-08-23T01:35:44.434Z,128.35
2022-08-23T01:38:15.445Z,131.98
2022-08-23T01:40:47.436Z,127.05
2022-08-23T01:43:19.867Z,129.13
2022-08-23T01:45:52.684Z,121.65
2022-08-23T01:48:25.670Z,142.25
2022-08-23T01:50:55.089Z,141.05
2022-08-23T01:53:25.359Z,142.27
2022-08-23T01:55:56.130Z,132.82
2022-08-23T01:58:26.901Z,135.73
2022-08-23T02:00:56.469Z,137.15
2022-08-23T02:03:26.235Z,150.05
2022-08-23T02:05:55.565Z,148.30
2022-08-23T02:08:42.441Z,145.30
2022-08-23T02:11:16.290Z,146.10
2022-08-23T02:13:49.377Z,145.30
2022-08-23T02:16:25.591Z,141.45
2022-08-23T02:18:59.175Z,190.43
2022-08-23T02:21:31.544Z,191.48
2022-08-23T02:24:04.333Z,183.77
2022-08-23T02:26:37.014Z,184.35
2022-08-23T02:29:08.052Z,142.38
2022-08-23T02:31:37.916Z,148.57
2022-08-23T02:34:07.796Z,156.07
2022-08-23T02:36:38.848Z,142.23
2022-08-23T02:39:09.610Z,183.02
2022-08-23T02:41:41.294Z,212.60
2022-08-23T02:44:13.522Z,161.23
2022-08-23T02:46:44.113Z,144.75
2022-08-23T02:49:14.161Z,163.55
2022-08-23T02:51:44.088Z,141.82
2022-08-23T02:54:13.729Z,141.88
2022-08-23T02:56:44.280Z,142.38
2022-08-23T02:59:13.580Z,138.25
2022-08-23T03:01:42.902Z,142.75
2022-08-23T03:04:22.606Z,131.70
2022-08-23T03:06:51.891Z,202.75
2022-08-23T03:09:22.790Z,159.07
2022-08-23T03:11:53.474Z,158.82
2022-08-23T03:14:24.778Z,132.55
2022-08-23T03:16:54.465Z,137.98
2022-08-23T03:19:27.816Z,144.00
2022-08-23T03:21:57.284Z,151.55
2022-08-23T03:24:27.283Z,122.72
2022-08-23T03:26:57.990Z,131.88
2022-08-23T03:29:27.163Z,137.23
2022-08-23T03:32:05.303Z,157.35
2022-08-23T03:34:38.550Z,137.63
2022-08-23T03:37:10.520Z,136.98
2022-08-23T03:39:40.332Z,125.63
2022-08-23T03:42:12.145Z,126.22
2022-08-23T03:44:41.407Z,130.43
2022-08-23T03:47:10.760Z,158.98
2022-08-23T03:49:44.135Z,116.72
2022-08-23T03:52:13.466Z,141.23
2022-08-23T03:54:42.660Z,130.57
2022-08-23T03:57:15.832Z,135.82
2022-08-23T03:59:45.460Z,153.55
2022-08-23T04:02:14.798Z,111.55
2022-08-23T04:04:44.110Z,117.82
2022-08-23T04:07:32.026Z,117.07
2022-08-23T04:10:01.447Z,113.80
2022-08-23T04:12:38.374Z,119.60
2022-08-23T04:15:14.866Z,110.40
2022-08-23T04:17:44.539Z,123.80
2022-08-23T04:20:14.120Z,110.72
2022-08-23T04:22:54.712Z,138.55
2022-08-23T04:25:33.809Z,114.32
2022-08-23T04:28:06.877Z,105.45
2022-08-23T04:30:36.826Z,106.37
2022-08-23T04:33:11.283Z,112.40
2022-08-23T04:35:42.919Z,115.97
2022-08-23T04:38:24.518Z,153.70
2022-08-23T04:41:15.558Z,105.70
2022-08-23T04:43:49.008Z,126.50
2022-08-23T04:46:18.508Z,98.72
2022-08-23T04:48:50.098Z,103.53
2022-08-23T04:51:22.331Z,104.75
2022-08-23T04:53:52.310Z,112.13
2022-08-23T04:56:43.033Z,126.20
2022-08-23T04:59:15.591Z,144.73
2022-08-23T05:01:47.176Z,119.05
2022-08-23T05:04:16.821Z,99.25
2022-08-23T05:06:46.701Z,103.53
2022-08-23T05:09:20.338Z,125.13
2022-08-23T05:11:51.270Z,108.28
2022-08-23T05:14:22.538Z,119.63
2022-08-23T05:16:51.926Z,114.07
2022-08-23T05:19:21.094Z,110.35
2022-08-23T05:21:55.071Z,109.35
2022-08-23T05:24:30.001Z,109.05
2022-08-23T05:26:59.204Z,109.45
2022-08-23T05:29:30.286Z,114.75
2022-08-23T05:31:59.625Z,110.32
2022-08-23T05:34:29.172Z,115.25
2022-08-23T05:37:00.751Z,107.47
2022-08-23T05:39:36.882Z,112.15
2022-08-23T05:42:14.369Z,104.47
2022-08-23T05:44:51.236Z,112.82
2022-08-23T05:47:24.668Z,106.18
2022-08-23T05:50:13.564Z,127.00
2022-08-23T05:52:45.839Z,111.43
2022-08-23T05:55:17.637Z,107.13
2022-08-23T05:57:56.905Z,97.95
2022-08-23T06:00:38.108Z,132.18
2022-08-23T06:03:10.978Z,128.38
2022-08-23T06:05:42.249Z,120.70
2022-08-23T06:08:13.264Z,117.40
2022-08-23T06:10:42.808Z,105.95
2022-08-23T06:13:25.492Z,82.90
2022-08-23T06:15:57.500Z,93.78
2022-08-23T06:18:28.009Z,111.45
2022-08-23T06:21:08.354Z,109.60
2022-08-23T06:23:49.710Z,98.22
2022-08-23T06:26:22.842Z,103.57
2022-08-23T06:28:57.612Z,118.15
2022-08-23T06:31:49.037Z,106.28
2022-08-23T06:34:33.642Z,106.22
2022-08-23T06:37:12.905Z,110.90
2022-08-23T06:40:00.771Z,101.60
2022-08-23T06:42:50.412Z,104.53
2022-08-23T06:45:33.880Z,89.43
2022-08-23T06:48:11.085Z,103.13
2022-08-23T06:50:47.833Z,101.53
2022-08-23T06:53:41.779Z,77.18
2022-08-23T06:56:32.964Z,100.05
2022-08-23T06:59:12.553Z,93.45
2022-08-23T07:02:04.164Z,96.72
2022-08-23T07:04:54.251Z,105.15
2022-08-23T07:07:41.319Z,89.95
2022-08-23T07:10:16.812Z,101.45
2022-08-23T07:12:46.267Z,106.65
2022-08-23T07:15:15.944Z,95.05
2022-08-23T07:17:47.311Z,92.00
2022-08-23T07:20:18.264Z,125.65
2022-08-23T07:22:50.495Z,112.57
2022-08-23T07:25:22.116Z,98.85
2022-08-23T07:27:56.564Z,128.23
2022-08-23T07:30:26.071Z,107.15
2022-08-23T07:33:01.269Z,88.57
2022-08-23T07:35:38.178Z,87.78
2022-08-23T07:38:15.543Z,102.10
2022-08-23T07:40:53.929Z,97.30
2022-08-23T07:43:24.095Z,92.65
2022-08-23T07:45:54.452Z,101.40
2022-08-23T07:48:50.160Z,106.22
2022-08-23T07:51:22.111Z,116.25
2022-08-23T07:53:54.161Z,99.82
2022-08-23T07:56:25.185Z,110.68
2022-08-23T07:59:02.623Z,105.93
2022-08-23T08:01:54.821Z,122.53
2022-08-23T08:04:26.422Z,103.93
2022-08-23T08:07:17.743Z,101.75
2022-08-23T08:09:48.105Z,94.10
2022-08-23T08:12:19.029Z,98.95
2022-08-23T08:17:27.494Z,98.72
2022-08-23T08:20:08.226Z,94.97
2022-08-23T08:22:58.488Z,95.10
2022-08-23T08:25:48.837Z,98.07
2022-08-23T08:28:20.888Z,91.28
2022-08-23T08:30:50.323Z,100.65
2022-08-23T08:33:19.506Z,100.93
2022-08-23T08:35:57.798Z,119.78
2022-08-23T08:38:31.836Z,95.28
2022-08-23T08:41:16.703Z,86.85
2022-08-23T08:44:04.581Z,83.45
2022-08-23T08:46:47.066Z,102.22
2022-08-23T08:49:26.544Z,79.50
2022-08-23T08:52:03.428Z,83.13
2022-08-23T08:54:34.477Z,78.13
2022-08-23T08:57:04.805Z,91.30
2022-08-23T08:59:53.282Z,72.22
2022-08-23T09:02:33.864Z,73.50
2022-08-23T09:05:13.016Z,63.47
2022-08-23T09:07:56.699Z,68.03
2022-08-23T09:10:59.071Z,71.97
2022-08-23T09:13:56.889Z,94.47
2022-08-23T09:16:40.821Z,83.97
2022-08-23T09:19:11.462Z,71.18
2022-08-23T09:21:47.692Z,87.05
2022-08-23T09:24:17.848Z,95.75
2022-08-23T09:26:59.220Z,88.43
2022-08-23T09:29:33.415Z,74.60
2022-08-23T09:32:06.665Z,89.57
2022-08-23T09:34:44.526Z,78.93
2022-08-23T09:37:22.290Z,71.82
2022-08-23T09:40:13.916Z,75.00
2022-08-23T09:42:45.107Z,88.78
2022-08-23T09:45:35.146Z,88.20
2022-08-23T09:48:08.304Z,69.22
2022-08-23T09:50:54.665Z,91.40
2022-08-23T09:53:28.302Z,90.93
2022-08-23T09:56:11.228Z,78.25
2022-08-23T09:58:47.019Z,89.10
2022-08-23T10:01:27.000Z,98.35
2022-08-23T10:04:14.602Z,117.38
2022-08-23T10:06:46.776Z,85.43
2022-08-23T10:11:57.287Z,104.90
2022-08-23T10:14:33.836Z,103.18
2022-08-23T10:17:15.865Z,132.23
2022-08-23T10:19:54.785Z,175.98
2022-08-23T10:22:27.689Z,147.13
2022-08-23T10:25:27.561Z,142.43
2022-08-23T10:28:27.619Z,98.40
2022-08-23T10:31:04.905Z,151.32
2022-08-23T10:33:46.723Z,162.73
2022-08-23T10:36:24.145Z,165.65
2022-08-23T10:39:03.729Z,100.95
2022-08-23T10:41:52.327Z,181.75
2022-08-23T10:44:33.321Z,103.25
2022-08-23T10:47:19.805Z,156.43
2022-08-23T10:49:53.533Z,123.18
2022-08-23T10:52:34.475Z,125.10
2022-08-23T10:55:17.493Z,78.53
2022-08-23T10:57:49.839Z,105.55
2022-08-23T11:00:26.815Z,140.52
2022-08-23T11:03:10.199Z,112.68
2022-08-23T11:05:40.897Z,83.63
2022-08-23T11:08:36.764Z,143.85
2022-08-23T11:11:46.160Z,109.55
2022-08-23T11:14:34.619Z,115.28
2022-08-23T11:17:08.376Z,104.55
2022-08-23T11:19:56.066Z,97.53
2022-08-23T11:22:31.022Z,99.28
2022-08-23T11:25:04.131Z,93.53
2022-08-23T11:27:42.055Z,111.40
2022-08-23T11:30:50.114Z,96.30
2022-08-23T11:33:44.319Z,132.90
2022-08-23T11:36:23.343Z,105.68
2022-08-23T11:39:19.619Z,94.70
2022-08-23T11:42:07.136Z,89.30
2022-08-23T11:44:47.729Z,89.70
2022-08-23T11:47:28.774Z,136.60
2022-08-23T11:50:26.949Z,124.72
2022-08-23T11:53:32.429Z,106.55
2022-08-23T11:56:46.163Z,101.22
2022-08-23T11:59:41.791Z,75.05
2022-08-23T12:03:03.296Z,80.30
2022-08-23T12:06:09.474Z,92.57
2022-08-23T12:08:56.981Z,73.75
2022-08-23T12:11:27.308Z,80.38
2022-08-23T12:14:02.257Z,74.65
2022-08-23T12:16:37.888Z,76.85
2022-08-23T12:19:19.986Z,94.22
2022-08-23T12:21:53.380Z,126.95
2022-08-23T12:24:32.905Z,95.88
2022-08-23T12:27:15.328Z,109.05
2022-08-23T12:32:34.112Z,112.20
2022-08-23T12:35:26.601Z,142.57
2022-08-23T12:38:05.671Z,112.32
2022-08-23T12:40:42.537Z,158.38
2022-08-23T12:43:22.787Z,186.23
2022-08-23T12:45:57.279Z,198.30
2022-08-23T12:48:30.406Z,156.48
2022-08-23T12:51:04.122Z,169.98
2022-08-23T12:53:41.381Z,230.75
2022-08-23T12:56:26.778Z,131.20
2022-08-23T12:59:06.907Z,177.15
2022-08-23T13:01:40.161Z,167.75
2022-08-23T13:04:13.678Z,140.50
2022-08-23T13:06:49.536Z,185.25
2022-08-23T13:09:24.517Z,136.70
2022-08-23T13:11:56.080Z,134.05
2022-08-23T13:14:34.562Z,131.40
2022-08-23T13:17:21.489Z,122.40
2022-08-23T13:19:56.288Z,150.07
2022-08-23T13:22:27.248Z,127.45
2022-08-23T13:28:02.581Z,199.27
2022-08-23T13:30:36.239Z,117.03
2022-08-23T13:33:25.119Z,127.32
2022-08-23T13:36:13.073Z,165.27
2022-08-23T13:38:44.444Z,175.15
2022-08-23T13:41:30.803Z,101.18
2022-08-23T13:44:08.111Z,116.30
2022-08-23T13:46:46.869Z,167.40
2022-08-23T13:49:21.435Z,72.03
2022-08-23T13:54:59.385Z,159.70
2022-08-23T13:57:30.286Z,127.03
2022-08-23T14:00:02.406Z,152.80
2022-08-23T14:02:39.744Z,101.82
2022-08-23T14:05:10.445Z,151.52
2022-08-23T14:07:39.996Z,140.30
2022-08-23T14:10:10.434Z,147.07
2022-08-23T14:12:40.129Z,245.20
2022-08-23T14:15:15.278Z,73.25
2022-08-23T14:17:48.360Z,177.00
2022-08-23T14:25:42.125Z,148.52
2022-08-23T14:28:11.580Z,57.03
2022-08-23T14:30:42.194Z,97.88
2022-08-23T14:33:11.497Z,86.03
2022-08-23T14:35:40.729Z,140.45
2022-08-23T14:38:10.989Z,87.43
2022-08-23T14:40:40.308Z,110.90
2022-08-23T14:43:11.957Z,100.53
2022-08-23T14:45:43.008Z,83.38
2022-08-23T14:48:12.508Z,91.00
2022-08-23T14:50:42.414Z,80.45
2022-08-23T14:53:13.428Z,95.50
2022-08-23T14:55:42.999Z,102.72
2022-08-23T14:58:12.213Z,97.13
2022-08-23T15:00:45.057Z,94.30
2022-08-23T15:03:20.288Z,109.88
2022-08-23T15:05:49.712Z,87.65
2022-08-23T15:08:19.112Z,100.07
2022-08-23T15:10:50.439Z,107.57
2022-08-23T15:13:28.425Z,98.68
2022-08-23T15:16:02.115Z,101.38
2022-08-23T15:18:34.300Z,109.28
2022-08-23T15:21:03.906Z,99.45
2022-08-23T15:23:33.522Z,103.80
2022-08-23T15:26:02.767Z,105.55
2022-08-23T15:28:32.531Z,108.72
2022-08-23T15:31:03.256Z,105.60
2022-08-23T15:33:33.755Z,94.85
2022-08-23T15:36:03.565Z,107.45
2022-08-23T15:38:33.170Z,100.40
2022-08-23T15:41:02.519Z,94.85
2022-08-23T15:43:34.204Z,106.70
2022-08-23T15:46:09.515Z,98.97
2022-08-23T15:48:45.625Z,92.82
2022-08-23T15:51:15.515Z,114.00
2022-08-23T15:53:45.354Z,108.82
2022-08-23T15:56:19.796Z,102.90
2022-08-23T15:58:50.386Z,85.22
2022-08-23T16:01:24.622Z,102.28
2022-08-23T16:03:54.166Z,100.97
2022-08-23T16:06:23.597Z,104.15
2022-08-23T16:08:54.462Z,88.10
2022-08-23T16:11:24.307Z,106.75
2022-08-23T16:13:55.835Z,108.20
2022-08-23T16:16:31.073Z,94.45
2022-08-23T16:19:02.090Z,93.10
2022-08-23T16:21:35.922Z,93.70
2022-08-23T16:24:07.175Z,105.75
2022-08-23T16:26:45.417Z,96.13
2022-08-23T16:29:18.275Z,134.30
2022-08-23T16:31:49.613Z,92.18
2022-08-23T16:34:21.415Z,91.20
2022-08-23T16:36:56.517Z,104.55
2022-08-23T16:39:27.938Z,95.45
2022-08-23T16:41:57.296Z,99.55
2022-08-23T16:44:26.469Z,83.00
2022-08-23T16:46:58.094Z,101.43
2022-08-23T16:49:27.281Z,102.38
2022-08-23T16:51:56.876Z,106.18
2022-08-23T16:54:26.496Z,95.07
2022-08-23T16:56:56.795Z,99.00
2022-08-23T16:59:26.237Z,91.20
2022-08-23T17:02:01.369Z,100.38
2022-08-23T17:04:40.021Z,98.60
2022-08-23T17:07:09.250Z,92.55
2022-08-23T17:09:38.499Z,95.72
2022-08-23T17:12:08.107Z,90.53
2022-08-23T17:14:37.450Z,89.65
2022-08-23T17:17:08.078Z,98.20
2022-08-23T17:19:37.475Z,93.53
2022-08-23T17:22:06.986Z,91.60
2022-08-23T17:24:37.559Z,95.90
2022-08-23T17:27:08.050Z,92.75
2022-08-23T17:29:37.772Z,93.43
2022-08-23T17:32:09.346Z,86.75
2022-08-23T17:34:39.349Z,95.63
2022-08-23T17:37:18.001Z,87.40
2022-08-23T17:39:48.168Z,94.85
2022-08-23T17:42:18.185Z,74.22
2022-08-23T17:44:47.491Z,98.80
2022-08-23T17:47:19.839Z,81.75
2022-08-23T17:49:50.427Z,76.22
2022-08-23T17:52:19.923Z,81.43
2022-08-23T17:54:49.238Z,84.25
2022-08-23T17:57:18.751Z,75.93
2022-08-23T17:59:48.384Z,76.95
2022-08-23T18:02:20.797Z,76.63
2022-08-23T18:04:50.150Z,79.20
2022-08-23T18:07:21.899Z,77.15
2022-08-23T18:09:51.385Z,76.20
2022-08-23T18:12:20.693Z,76.80
2022-08-23T18:14:49.929Z,77.22
2022-08-23T18:17:20.605Z,72.95
2022-08-23T18:19:49.943Z,72.90
2022-08-23T18:22:20.244Z,73.18
2022-08-23T18:24:49.472Z,64.38
2022-08-23T18:27:47.840Z,74.28
2022-08-23T18:30:17.532Z,62.25
2022-08-23T18:32:48.882Z,65.55
2022-08-23T18:35:18.565Z,60.28
2022-08-23T18:37:48.023Z,58.85
2022-08-23T18:40:17.358Z,71.57
2022-08-23T18:42:46.672Z,64.15
2022-08-23T18:45:16.039Z,62.10
2022-08-23T18:47:45.869Z,65.45
2022-08-23T18:50:17.422Z,65.03
2022-08-23T18:52:46.775Z,59.77
2022-08-23T18:55:17.682Z,79.68
2022-08-23T18:57:47.690Z,65.10
2022-08-23T19:00:17.262Z,65.90
2022-08-23T19:02:49.240Z,68.65
2022-08-23T19:05:20.051Z,71.45
2022-08-23T19:07:49.938Z,67.60
2022-08-23T19:10:21.196Z,66.03
2022-08-23T19:13:02.472Z,65.35
2022-08-23T19:15:34.126Z,68.75
2022-08-23T19:18:05.593Z,71.80
2022-08-23T19:20:37.402Z,70.70
2022-08-23T19:23:07.649Z,70.20
2022-08-23T19:25:41.197Z,81.38
2022-08-23T19:28:14.836Z,58.35
2022-08-23T19:30:44.619Z,83.07
2022-08-23T19:33:14.203Z,85.90
2022-08-23T19:35:45.575Z,88.15
2022-08-23T19:38:17.259Z,65.25
2022-08-23T19:40:54.634Z,80.28
2022-08-23T19:43:24.434Z,89.53
2022-08-23T19:45:54.893Z,99.32
2022-08-23T19:48:24.564Z,111.72
2022-08-23T19:50:58.132Z,89.22
2022-08-23T19:53:28.035Z,84.07
2022-08-23T19:55:57.425Z,93.10
2022-08-23T19:58:26.667Z,105.15
2022-08-23T20:00:56.186Z,104.13
2022-08-23T20:03:26.560Z,95.57
2022-08-23T20:05:58.980Z,105.07
2022-08-23T20:08:28.816Z,118.28
2022-08-23T20:10:59.674Z,112.43
2022-08-23T20:13:29.510Z,134.65
2022-08-23T20:15:58.871Z,110.97
2022-08-23T20:18:28.279Z,114.07
2022-08-23T20:21:00.833Z,131.07
2022-08-23T20:26:16.527Z,88.43
2022-08-23T20:28:59.113Z,92.97
2022-08-23T20:31:36.832Z,97.60
2022-08-23T20:34:09.366Z,124.68
2022-08-23T20:36:40.564Z,120.60
2022-08-23T20:39:10.112Z,97.90
2022-08-23T20:41:45.130Z,130.63
2022-08-23T20:44:16.432Z,110.82
2022-08-23T20:46:45.754Z,112.00
2022-08-23T20:49:15.842Z,146.20
2022-08-23T20:51:47.079Z,127.70
2022-08-23T20:54:18.933Z,147.43
2022-08-23T20:56:51.546Z,134.25
2022-08-23T20:59:22.181Z,146.70
2022-08-23T21:01:52.252Z,142.88
2022-08-23T21:04:22.665Z,154.77
2022-08-23T21:07:01.473Z,114.82
2022-08-23T21:09:31.055Z,158.75
2022-08-23T21:12:00.361Z,172.68
2022-08-23T21:14:30.060Z,150.77
2022-08-23T21:16:59.452Z,156.13
2022-08-23T21:19:30.099Z,162.70
2022-08-23T21:22:01.189Z,188.05
2022-08-23T21:24:32.270Z,152.98
2022-08-23T21:27:01.668Z,184.38
2022-08-23T21:29:39.078Z,176.05
2022-08-23T21:32:08.702Z,171.68
2022-08-23T21:34:40.657Z,160.15
2022-08-23T21:37:11.496Z,171.60
2022-08-23T21:39:40.852Z,158.82
2022-08-23T21:42:15.052Z,162.73
2022-08-23T21:44:47.927Z,172.38
2022-08-23T21:49:47.251Z,134.27
2022-08-23T21:52:18.080Z,146.32
2022-08-23T21:54:47.910Z,161.07
2022-08-23T21:57:20.040Z,167.80
2022-08-23T21:59:49.580Z,157.00
2022-08-23T22:02:19.400Z,150.70
2022-08-23T22:04:49.408Z,158.90
2022-08-23T22:07:20.141Z,147.55
2022-08-23T22:09:51.542Z,165.02
2022-08-23T22:12:24.928Z,145.63
2022-08-23T22:14:54.633Z,158.35
2022-08-23T22:17:23.877Z,149.93
2022-08-23T22:19:55.177Z,159.07
2022-08-23T22:22:26.458Z,161.32
2022-08-23T22:24:56.032Z,163.07
2022-08-23T22:27:25.303Z,153.25
2022-08-23T22:29:54.535Z,153.80
2022-08-23T22:32:24.598Z,148.32
2022-08-23T22:34:53.862Z,162.07
2022-08-23T22:37:23.799Z,141.30
2022-08-23T22:39:57.358Z,134.80
2022-08-23T22:42:26.661Z,146.07
2022-08-23T22:44:58.477Z,141.75
2022-08-23T22:47:28.003Z,138.13
2022-08-23T22:49:57.955Z,136.70
2022-08-23T22:52:27.070Z,148.73
2022-08-23T22:54:58.159Z,145.45
2022-08-23T22:57:27.373Z,141.55
2022-08-23T22:59:56.660Z,145.23
2022-08-23T23:02:28.093Z,143.27
2022-08-23T23:04:57.443Z,147.13
2022-08-23T23:07:40.542Z,135.25
2022-08-23T23:10:11.720Z,141.60
2022-08-23T23:12:41.523Z,158.65
2022-08-23T23:15:12.102Z,149.32
2022-08-23T23:17:41.468Z,151.27
2022-08-23T23:20:29.383Z,154.23
2022-08-23T23:22:58.673Z,155.43
2022-08-23T23:25:29.294Z,156.15
2022-08-23T23:28:02.298Z,146.60
2022-08-23T23:30:32.715Z,176.85
2022-08-23T23:33:02.314Z,153.02
2022-08-23T23:35:31.604Z,137.88
2022-08-23T23:38:01.116Z,145.10
2022-08-23T23:40:32.736Z,129.95
2022-08-23T23:43:02.141Z,135.27
2022-08-23T23:45:31.968Z,141.40
2022-08-23T23:48:01.394Z,133.13
2022-08-23T23:50:32.524Z,145.48
2022-08-23T23:53:01.664Z,130.88
2022-08-23T23:55:32.455Z,131.23
2022-08-23T23:58:02.281Z,119.35
